Grajau, Brazil
Current Conditions -  °F | °C
As of 5:00 PM on Sunday 25 Jan 2015 (Local Time) from SBIZ Reporting Station
Light Rain Light Rain  
Wind Chill: 77°   Ceiling: 7000
Heat Index: 78°   Visibility: 6mi
Dew Point: 75°   Wind: 2mph
Humidity: 94%   Direction: 250°WSW
Pressure: 29.83"   Gusts: NA
Location:  5.82°S, 46.14°W
Report Text: SBIZ 252000Z 25002KT 9000 -RA SCT015 SCT020 OVC070 25/24 Q1010 RETS
Loading
Personal Weather Stations






























Interactive Weather Map New forecast layout! Learn more

10-Day Weather Forecast

Advertisements
Track Severe Weather on mobile